Time;durP1;ratioP1;P1;durP2;ratioP2;P2;SDS_P1;SDS_P2;PMS_P1;PMS_P2;Temp;Humidity;BMP_temperature;BMP_pressure;BME280_temperature;BME280_humidity;BME280_pressure;Samples;Min_cycle;Max_cycle;Signal;HPM_P1;HPM_P2
2022/02/13 00:02:10;;;;;;;;;32.75;30.75;;;;;3.43;62.25;101186.63;4922966;28;45301;-62
2022/02/13 00:04:36;;;;;;;;;35.50;28.50;;;;;3.42;62.55;101177.09;4924324;28;45450;-65
2022/02/13 00:07:02;;;;;;;;;34.25;30.25;;;;;3.39;62.80;101175.34;4922685;28;46532;-64
2022/02/13 00:09:30;;;;;;;;;28.25;28.25;;;;;3.38;62.72;101177.97;4927530;28;45419;-65
2022/02/13 00:11:56;;;;;;;;;32.75;29.25;;;;;3.35;63.13;101158.91;4930829;28;45367;-62
2022/02/13 00:14:21;;;;;;;;;32.50;27.75;;;;;3.30;62.76;101155.44;4922481;28;45381;-61
2022/02/13 00:16:47;;;;;;;;;19.25;16.25;;;;;3.31;62.63;101146.78;4919637;28;45401;-62
2022/02/13 00:19:12;;;;;;;;;33.75;29.00;;;;;3.23;63.07;101140.72;4920112;28;45579;-64
2022/02/13 00:21:38;;;;;;;;;38.00;28.00;;;;;3.27;63.14;101142.44;4922172;28;45330;-61
2022/02/13 00:24:03;;;;;;;;;39.75;29.25;;;;;3.20;63.37;101128.56;4925416;28;45270;-62
2022/02/13 00:26:29;;;;;;;;;35.00;32.25;;;;;3.12;62.92;101114.72;4925009;28;45325;-62
2022/02/13 00:28:54;;;;;;;;;33.50;30.75;;;;;3.18;63.56;101126.81;4923262;28;45256;-62
2022/02/13 00:31:20;;;;;;;;;32.25;28.00;;;;;3.15;63.05;101124.22;4923274;28;45303;-63
2022/02/13 00:33:45;;;;;;;;;33.75;30.75;;;;;3.13;63.31;101118.16;4922855;28;45228;-63
2022/02/13 00:36:11;;;;;;;;;32.25;29.00;;;;;3.11;63.55;101114.69;4922362;28;46220;-64
2022/02/13 00:38:36;;;;;;;;;34.75;33.25;;;;;3.09;63.16;101116.44;4924100;28;45228;-65
2022/02/13 00:41:01;;;;;;;;;35.50;33.25;;;;;3.10;64.09;101110.34;4923777;28;45175;-63
2022/02/13 00:43:27;;;;;;;;;31.00;29.00;;;;;3.07;63.73;101104.28;4922918;28;45144;-62
2022/02/13 00:45:52;;;;;;;;;37.00;31.75;;;;;3.06;63.61;101099.97;4923435;28;46034;-63
2022/02/13 00:48:17;;;;;;;;;33.00;30.75;;;;;3.07;63.86;101087.84;4924919;28;52077;-64
2022/02/13 00:50:45;;;;;;;;;39.50;34.75;;;;;3.07;63.72;101088.69;4925003;28;45460;-61
2022/02/13 00:53:11;;;;;;;;;34.50;29.75;;;;;3.04;63.35;101083.50;4924922;28;45223;-61
2022/02/13 00:55:36;;;;;;;;;38.75;33.25;;;;;3.02;63.33;101082.63;4921207;28;45532;-63
2022/02/13 00:58:02;;;;;;;;;33.00;32.00;;;;;3.03;63.48;101081.78;4922191;28;45378;-64
2022/02/13 01:00:27;;;;;;;;;37.75;31.00;;;;;3.04;63.57;101086.09;4922573;28;45287;-62
2022/02/13 01:02:53;;;;;;;;;36.25;33.00;;;;;3.01;63.97;101077.47;4921651;28;45566;-61
2022/02/13 01:05:18;;;;;;;;;37.50;33.25;;;;;2.98;63.57;101078.31;4922227;28;45543;-62
2022/02/13 01:07:44;;;;;;;;;37.25;31.00;;;;;2.97;64.59;101079.19;4922637;28;45241;-61
2022/02/13 01:10:09;;;;;;;;;38.50;34.25;;;;;2.92;63.77;101062.72;4922930;28;45225;-63
2022/02/13 01:12:35;;;;;;;;;36.50;33.25;;;;;2.94;64.44;101073.97;4924287;28;45496;-69
2022/02/13 01:15:01;;;;;;;;;44.50;35.75;;;;;2.92;65.10;101067.94;4922641;28;46123;-62
2022/02/13 01:17:26;;;;;;;;;39.50;32.75;;;;;2.89;63.97;101063.63;4920601;28;45190;-62
2022/02/13 01:19:52;;;;;;;;;38.00;33.50;;;;;2.87;64.13;101061.88;4921140;28;45325;-63
2022/02/13 01:22:17;;;;;;;;;48.00;38.50;;;;;2.85;64.61;101064.47;4923382;28;45325;-62
2022/02/13 01:24:43;;;;;;;;;44.25;37.75;;;;;2.83;64.69;101054.94;4924098;28;45605;-63
2022/02/13 01:27:08;;;;;;;;;37.75;32.00;;;;;2.82;65.23;101050.59;4923374;28;45495;-62
2022/02/13 01:29:34;;;;;;;;;32.75;26.00;;;;;2.76;64.69;101046.31;4924900;28;45319;-63
2022/02/13 01:32:00;;;;;;;;;40.25;32.00;;;;;2.51;65.05;101001.28;4924363;28;45549;-63
2022/02/13 01:34:27;;;;;;;;;38.75;34.75;;;;;2.76;64.61;101048.91;4921952;28;45833;-63
2022/02/13 01:36:52;;;;;;;;;36.50;30.50;;;;;2.75;64.78;101041.97;4920831;28;45444;-61
2022/02/13 01:39:18;;;;;;;;;29.50;28.50;;;;;2.73;65.16;101041.94;4921802;28;45286;-62
2022/02/13 01:41:45;;;;;;;;;32.25;27.75;;;;;2.73;65.29;101041.09;4921827;28;45275;-62
2022/02/13 01:44:29;;;;;;;;;30.50;22.75;;;;;2.73;64.82;101044.56;4920747;28;45188;-62
2022/02/13 01:46:55;;;;;;;;;30.50;26.25;;;;;2.72;64.63;101052.38;4922532;28;45239;-63
2022/02/13 01:49:21;;;;;;;;;36.75;31.25;;;;;2.50;64.90;101007.31;4921107;28;45261;-62
2022/02/13 01:51:46;;;;;;;;;29.50;28.75;;;;;2.70;65.11;101039.34;4920936;28;45679;-62
2022/02/13 01:54:12;;;;;;;;;34.00;29.75;;;;;2.71;64.66;101037.63;4920839;28;45354;-61
2022/02/13 01:56:39;;;;;;;;;33.25;27.50;;;;;2.66;64.80;101036.78;4921060;28;45334;-62
2022/02/13 01:59:06;;;;;;;;;33.25;28.25;;;;;2.67;64.50;101041.09;4921076;28;45426;-62
2022/02/13 02:01:31;;;;;;;;;30.50;27.50;;;;;2.52;64.36;101016.00;4922813;28;45339;-66
2022/02/13 02:03:57;;;;;;;;;29.00;23.00;;;;;2.68;65.03;101042.84;4924111;28;45489;-62
2022/02/13 02:06:22;;;;;;;;;38.50;30.00;;;;;2.61;65.35;101027.22;4925140;28;45411;-63
2022/02/13 02:08:47;;;;;;;;;38.00;33.00;;;;;2.64;64.59;101031.56;4924650;28;45426;-63
2022/02/13 02:11:13;;;;;;;;;33.00;30.75;;;;;2.60;65.20;101020.28;4922826;28;45533;-64
2022/02/13 02:13:38;;;;;;;;;42.75;32.50;;;;;2.61;64.69;101015.97;4923285;28;45607;-63
2022/02/13 02:16:04;;;;;;;;;36.25;32.75;;;;;2.58;65.51;101014.25;4924790;28;45202;-65
2022/02/13 02:18:29;;;;;;;;;37.25;33.00;;;;;2.56;65.18;101009.91;4926803;28;45192;-65
2022/02/13 02:20:58;;;;;;;;;33.75;28.00;;;;;2.53;65.61;101007.31;4926905;28;45657;-63
2022/02/13 02:23:25;;;;;;;;;32.25;30.00;;;;;2.45;65.64;100996.94;4924976;28;46361;-64
2022/02/13 02:25:50;;;;;;;;;35.25;30.25;;;;;2.44;64.88;100993.47;4921551;28;45386;-65
2022/02/13 02:28:15;;;;;;;;;34.75;30.00;;;;;2.41;64.81;100982.22;4921156;28;45350;-65
2022/02/13 02:30:41;;;;;;;;;50.25;36.75;;;;;2.42;64.98;100981.34;4924404;28;45354;-64
2022/02/13 02:33:11;;;;;;;;;32.25;29.75;;;;;2.39;65.18;100979.63;4924219;28;45495;-62
2022/02/13 02:35:36;;;;;;;;;37.25;33.25;;;;;2.37;65.94;100967.50;4923155;28;45335;-63
2022/02/13 02:38:02;;;;;;;;;37.50;32.00;;;;;2.34;65.92;100951.06;4923207;28;45281;-63
2022/02/13 02:40:27;;;;;;;;;34.75;33.00;;;;;2.29;65.14;100945.00;4923302;28;44971;-63
2022/02/13 02:42:52;;;;;;;;;35.25;30.00;;;;;2.31;65.21;100942.44;4922287;28;45526;-66
2022/02/13 02:45:18;;;;;;;;;36.25;29.00;;;;;2.28;65.45;100939.81;4923739;28;45762;-65
2022/02/13 02:47:43;;;;;;;;;35.50;31.00;;;;;2.27;66.03;100944.13;4923646;28;45643;-62
2022/02/13 02:50:10;;;;;;;;;37.75;32.25;;;;;2.29;65.61;100936.38;4921946;28;45590;-62
2022/02/13 02:52:36;;;;;;;;;37.50;29.25;;;;;2.26;66.11;100942.41;4926338;28;45682;-64
2022/02/13 02:55:01;;;;;;;;;37.75;31.50;;;;;2.25;66.13;100937.22;4923837;28;45382;-63
2022/02/13 02:57:26;;;;;;;;;37.25;28.00;;;;;2.24;65.62;100943.28;4927053;28;45409;-64
2022/02/13 02:59:52;;;;;;;;;35.00;31.50;;;;;2.22;66.50;100950.22;4927605;28;45338;-61
2022/02/13 03:02:17;;;;;;;;;35.50;28.75;;;;;2.19;66.28;100944.16;4926004;28;45339;-68
2022/02/13 03:04:43;;;;;;;;;38.50;32.00;;;;;2.16;66.87;100936.38;4930529;28;45341;-69
2022/02/13 03:07:08;;;;;;;;;35.50;31.25;;;;;2.15;66.41;100944.13;4933823;28;45305;-62
2022/02/13 03:09:33;;;;;;;;;31.50;31.50;;;;;2.12;65.79;100947.63;4933076;28;44928;-63
2022/02/13 03:11:59;;;;;;;;;30.00;24.75;;;;;2.07;66.07;100936.34;4926948;28;45512;-63
2022/02/13 03:14:26;;;;;;;;;34.75;27.50;;;;;2.12;66.16;100936.34;4929086;28;45442;-65
2022/02/13 03:16:52;;;;;;;;;64.00;51.00;;;;;2.11;67.14;100937.22;4928749;28;45404;-66
2022/02/13 03:19:17;;;;;;;;;37.75;31.75;;;;;1.90;66.98;100902.59;4928495;28;45347;-61
2022/02/13 03:21:43;;;;;;;;;31.75;28.00;;;;;2.09;66.31;100937.19;4926368;28;46237;-63
2022/02/13 03:24:09;;;;;;;;;31.25;27.75;;;;;2.04;67.24;100926.84;4927374;28;45409;-64
2022/02/13 03:26:35;;;;;;;;;42.25;33.75;;;;;1.83;66.47;100883.56;4927747;28;45373;-65
2022/02/13 03:29:02;;;;;;;;;35.00;30.00;;;;;2.03;66.99;100906.06;4926287;28;45361;-66
2022/02/13 03:31:27;;;;;;;;;26.75;24.25;;;;;1.81;66.82;100877.50;4924589;28;47355;-65
2022/02/13 03:33:54;;;;;;;;;32.25;28.25;;;;;1.98;67.50;100903.47;4925230;28;45271;-64
2022/02/13 03:36:19;;;;;;;;;29.75;27.00;;;;;1.94;66.64;100887.91;4924759;28;45396;-62
2022/02/13 03:38:45;;;;;;;;;27.75;26.50;;;;;1.94;67.53;100890.47;4923589;28;45418;-64
2022/02/13 03:41:11;;;;;;;;;35.50;29.25;;;;;1.94;67.65;100895.69;4928302;28;45450;-70
2022/02/13 03:43:37;;;;;;;;;31.25;26.25;;;;;1.85;66.83;100889.63;4925188;28;45393;-65
2022/02/13 03:46:02;;;;;;;;;36.00;32.50;;;;;1.87;67.42;100895.69;4926122;28;45306;-60
2022/02/13 03:48:28;;;;;;;;;29.00;25.75;;;;;1.87;67.07;100897.41;4927676;28;45229;-63
2022/02/13 03:50:53;;;;;;;;;35.00;29.50;;;;;1.86;67.96;100890.50;4925810;28;46291;-64
2022/02/13 03:53:19;;;;;;;;;34.00;24.50;;;;;1.86;67.68;100882.72;4924390;28;45340;-66
2022/02/13 03:55:44;;;;;;;;;28.25;26.75;;;;;1.85;68.09;100876.66;4925973;28;45337;-64
2022/02/13 03:58:09;;;;;;;;;33.00;26.00;;;;;1.85;67.35;100878.41;4922651;28;45279;-62
2022/02/13 04:00:35;;;;;;;;;33.25;28.00;;;;;1.83;67.79;100874.94;4922299;28;45448;-61
2022/02/13 04:03:00;;;;;;;;;36.25;30.00;;;;;1.81;67.50;100874.91;4923976;28;45392;-63
2022/02/13 04:05:26;;;;;;;;;31.25;26.25;;;;;1.83;67.58;100869.75;4924060;28;45485;-61
2022/02/13 04:07:51;;;;;;;;;31.25;29.00;;;;;1.82;67.55;100879.25;4923201;28;45382;-60
2022/02/13 04:10:17;;;;;;;;;38.00;31.50;;;;;1.80;67.71;100878.38;4925637;28;46708;-69
2022/02/13 04:12:42;;;;;;;;;32.25;31.00;;;;;1.77;68.20;100873.19;4926114;28;45382;-66
2022/02/13 04:15:09;;;;;;;;;42.00;33.00;;;;;1.77;67.98;100868.00;4924591;28;45321;-63
2022/02/13 04:17:34;;;;;;;;;37.25;28.75;;;;;1.58;67.96;100838.56;4923670;28;45465;-62
2022/02/13 04:20:00;;;;;;;;;33.75;27.00;;;;;1.75;68.07;100872.31;4923853;28;45365;-63
2022/02/13 04:22:26;;;;;;;;;30.00;26.00;;;;;1.71;68.24;100861.09;4923008;28;45296;-61
2022/02/13 04:24:51;;;;;;;;;26.00;23.50;;;;;1.74;68.15;100863.69;4922763;28;45296;-63
2022/02/13 04:27:17;;;;;;;;;34.25;27.50;;;;;1.74;67.80;100863.69;4923807;28;45284;-65
2022/02/13 04:29:42;;;;;;;;;28.50;22.75;;;;;1.23;68.00;100780.66;4924588;28;45537;-63
2022/02/13 04:32:07;;;;;;;;;29.00;25.25;;;;;1.68;68.08;100855.03;4922553;28;45466;-64
2022/02/13 04:34:33;;;;;;;;;27.75;25.25;;;;;1.67;68.12;100854.19;4923532;28;45225;-63
2022/02/13 04:36:58;;;;;;;;;27.50;25.00;;;;;1.70;67.62;100843.81;4925059;28;45402;-63
2022/02/13 04:39:23;;;;;;;;;39.00;32.75;;;;;1.70;68.00;100849.00;4922868;28;46046;-68
2022/02/13 04:41:49;;;;;;;;;31.75;27.75;;;;;1.70;67.82;100854.19;4924463;28;45359;-62
2022/02/13 04:44:14;;;;;;;;;30.25;26.75;;;;;1.68;68.06;100842.94;4926344;28;45262;-62
2022/02/13 04:46:40;;;;;;;;;31.00;25.25;;;;;1.67;68.55;100833.44;4925276;28;45542;-63
2022/02/13 04:49:05;;;;;;;;;31.50;25.50;;;;;1.72;67.91;100833.41;4922669;28;46010;-66
2022/02/13 04:51:31;;;;;;;;;31.25;24.00;;;;;1.73;68.31;100824.78;4924153;28;45361;-65
2022/02/13 04:53:56;;;;;;;;;28.00;27.50;;;;;1.72;68.39;100823.03;4921183;28;45396;-68
2022/02/13 04:56:21;;;;;;;;;30.50;28.25;;;;;1.66;68.24;100805.75;4921008;28;45440;-63
2022/02/13 04:58:46;;;;;;;;;27.75;27.00;;;;;1.69;67.68;100813.53;4920222;28;45493;-62
2022/02/13 05:01:13;;;;;;;;;29.75;25.00;;;;;1.71;67.96;100813.53;4920417;28;45379;-64
2022/02/13 05:03:38;;;;;;;;;30.75;26.25;;;;;1.70;67.64;100809.22;4920779;28;45255;-63
2022/02/13 05:06:05;;;;;;;;;32.00;28.25;;;;;1.68;68.00;100809.22;4921198;28;45161;-65
2022/02/13 05:08:30;;;;;;;;;25.25;23.50;;;;;1.66;68.10;100800.56;4922260;28;46555;-64
2022/02/13 05:10:56;;;;;;;;;32.25;29.75;;;;;1.68;67.94;100801.44;4922632;28;45450;-67
2022/02/13 05:13:21;;;;;;;;;26.50;24.00;;;;;1.69;67.89;100795.38;4922004;28;45303;-65
2022/02/13 05:15:47;;;;;;;;;30.00;27.75;;;;;1.60;68.04;100780.69;4922647;28;45228;-69
2022/02/13 05:18:12;;;;;;;;;27.75;25.25;;;;;1.68;68.15;100790.19;4920656;28;45552;-62
2022/02/13 05:20:37;;;;;;;;;31.00;27.00;;;;;1.57;68.11;100770.31;4922149;28;45359;-64
2022/02/13 05:23:03;;;;;;;;;31.50;26.25;;;;;1.67;67.80;100776.38;4923866;28;45391;-61
2022/02/13 05:25:28;;;;;;;;;32.50;26.75;;;;;1.66;67.52;100781.53;4922676;28;45418;-63
2022/02/13 05:27:54;;;;;;;;;32.25;26.50;;;;;1.65;67.48;100777.22;4926128;28;47778;-62
2022/02/13 05:30:19;;;;;;;;;43.00;30.00;;;;;1.65;67.91;100777.22;4923550;28;45382;-62
2022/02/13 05:32:45;;;;;;;;;32.75;27.50;;;;;1.65;67.83;100775.50;4921029;28;45322;-64
2022/02/13 05:35:10;;;;;;;;;29.50;25.00;;;;;1.56;68.05;100752.16;4920672;28;45326;-60
2022/02/13 05:37:39;;;;;;;;;26.50;26.50;;;;;1.64;67.60;100767.72;4920328;28;46061;-61
2022/02/13 05:40:05;;;;;;;;;28.00;23.25;;;;;1.63;67.67;100766.00;4925530;28;45401;-62
2022/02/13 05:42:30;;;;;;;;;29.25;25.75;;;;;1.58;67.44;100766.84;4923422;28;45339;-63
2022/02/13 05:44:56;;;;;;;;;33.50;27.25;;;;;1.58;67.83;100753.00;4925050;28;45324;-61
2022/02/13 05:47:22;;;;;;;;;28.25;27.00;;;;;1.50;67.74;100737.47;4924943;28;45377;-61
2022/02/13 05:49:47;;;;;;;;;30.75;26.00;;;;;1.62;68.26;100764.25;4925224;28;45282;-64
2022/02/13 05:52:13;;;;;;;;;26.75;22.00;;;;;1.41;67.84;100727.09;4925533;28;45269;-62
2022/02/13 05:54:39;;;;;;;;;29.25;25.00;;;;;1.58;68.12;100763.38;4924663;28;45359;-64
2022/02/13 05:57:05;;;;;;;;;27.25;25.25;;;;;1.57;67.65;100762.53;4925498;28;46740;-66
2022/02/13 05:59:30;;;;;;;;;27.50;24.00;;;;;1.50;67.79;100740.06;4928700;28;45296;-63
2022/02/13 06:01:56;;;;;;;;;27.00;25.00;;;;;1.56;67.88;100745.25;4927935;28;45383;-63
2022/02/13 06:04:25;;;;;;;;;29.50;22.75;;;;;1.56;67.65;100752.16;4931477;28;45504;-63
2022/02/13 06:06:53;;;;;;;;;22.75;22.50;;;;;1.54;67.42;100735.72;4928769;28;47307;-61
2022/02/13 06:09:19;;;;;;;;;32.25;24.00;;;;;1.31;67.26;100706.38;4924191;28;45302;-63
2022/02/13 06:11:45;;;;;;;;;26.50;21.50;;;;;1.59;67.52;100747.84;4921537;28;45354;-61
2022/02/13 06:14:11;;;;;;;;;29.00;23.75;;;;;1.59;67.31;100746.97;4918925;28;45418;-63
2022/02/13 06:16:36;;;;;;;;;27.25;26.75;;;;;1.59;67.29;100742.66;4920146;28;46516;-62
2022/02/13 06:19:02;;;;;;;;;26.50;24.00;;;;;1.59;67.21;100739.19;4920507;28;45255;-61
2022/02/13 06:21:27;;;;;;;;;24.25;22.00;;;;;1.65;67.36;100740.91;4919666;28;45478;-61
2022/02/13 06:23:52;;;;;;;;;31.50;24.50;;;;;1.60;67.57;100725.38;4921240;28;45528;-62
2022/02/13 06:26:18;;;;;;;;;25.00;23.00;;;;;1.64;66.97;100740.06;4922184;28;45516;-64
2022/02/13 06:28:44;;;;;;;;;28.00;26.00;;;;;1.67;67.20;100741.78;4922577;28;45805;-63
2022/02/13 06:31:10;;;;;;;;;30.25;25.50;;;;;1.67;67.14;100745.25;4923278;28;45386;-65
2022/02/13 06:33:35;;;;;;;;;24.75;19.50;;;;;1.71;67.21;100743.50;4921529;28;45567;-61
2022/02/13 06:36:01;;;;;;;;;30.25;26.00;;;;;1.77;66.84;100753.03;4919828;28;45221;-62
2022/02/13 06:38:26;;;;;;;;;32.00;27.00;;;;;1.72;67.13;100733.16;4919484;28;51990;-63
2022/02/13 06:40:51;;;;;;;;;26.00;21.25;;;;;1.73;67.15;100729.69;4920137;28;45334;-62
2022/02/13 06:43:17;;;;;;;;;27.50;23.00;;;;;1.78;66.34;100724.47;4919667;28;45322;-67
2022/02/13 06:45:42;;;;;;;;;27.50;21.75;;;;;1.85;66.00;100731.38;4919190;28;45371;-66
2022/02/13 06:48:08;;;;;;;;;24.25;22.25;;;;;1.68;66.43;100704.59;4919137;28;45299;-65
2022/02/13 06:50:34;;;;;;;;;26.75;24.75;;;;;1.86;66.52;100727.06;4923761;28;45354;-66
2022/02/13 06:52:59;;;;;;;;;27.50;25.25;;;;;1.85;66.75;100728.78;4919884;28;45619;-62
2022/02/13 06:55:25;;;;;;;;;34.25;24.25;;;;;1.88;66.28;100721.00;4918749;28;46592;-61
2022/02/13 06:57:51;;;;;;;;;25.00;21.00;;;;;1.88;66.65;100702.84;4918461;28;45460;-62
2022/02/13 07:00:17;;;;;;;;;29.25;25.50;;;;;1.88;66.55;100705.44;4919327;28;45298;-64
2022/02/13 07:02:44;;;;;;;;;28.50;23.00;;;;;1.85;66.00;100678.66;4919315;28;45631;-62
2022/02/13 07:05:10;;;;;;;;;26.25;24.75;;;;;1.80;65.88;100683.84;4919580;28;45699;-64
2022/02/13 07:07:38;;;;;;;;;29.50;25.50;;;;;1.82;66.00;100687.28;4918874;28;45365;-62
2022/02/13 07:10:09;;;;;;;;;28.25;24.00;;;;;1.81;66.17;100685.56;4922833;28;45338;-64
2022/02/13 07:12:35;;;;;;;;;26.75;24.50;;;;;1.79;66.35;100689.03;4922719;28;45223;-63
2022/02/13 07:15:00;;;;;;;;;29.50;26.25;;;;;1.79;66.56;100686.44;4920225;28;46219;-61
2022/02/13 07:17:26;;;;;;;;;29.75;26.00;;;;;1.78;66.02;100676.94;4919179;28;45186;-63
2022/02/13 07:19:52;;;;;;;;;36.00;28.50;;;;;1.77;66.61;100678.66;4918607;28;45163;-66
2022/02/13 07:22:17;;;;;;;;;28.00;23.25;;;;;1.79;66.92;100684.69;4919623;28;45570;-64
2022/02/13 07:24:42;;;;;;;;;32.00;24.75;;;;;1.79;66.77;100684.69;4918893;28;45405;-65
2022/02/13 07:27:08;;;;;;;;;28.75;24.00;;;;;1.80;66.44;100688.19;4917443;28;45331;-63
2022/02/13 07:29:34;;;;;;;;;27.25;24.75;;;;;1.79;66.88;100689.88;4917806;28;45480;-61
2022/02/13 07:31:59;;;;;;;;;34.25;26.50;;;;;1.81;66.26;100685.56;4919178;28;45359;-62
2022/02/13 07:34:25;;;;;;;;;24.50;23.75;;;;;1.80;66.52;100675.22;4919569;28;46155;-61
2022/02/13 07:36:54;;;;;;;;;21.00;20.00;;;;;1.82;66.22;100676.91;4921992;28;45363;-62
2022/02/13 07:39:20;;;;;;;;;23.50;22.00;;;;;1.87;66.36;100679.50;4920672;28;45227;-65
2022/02/13 07:41:46;;;;;;;;;30.00;25.00;;;;;1.85;66.89;100673.47;4923481;28;45179;-63
2022/02/13 07:44:11;;;;;;;;;30.75;28.00;;;;;1.91;67.14;100681.22;4921814;28;45434;-64
2022/02/13 07:46:38;;;;;;;;;26.75;24.00;;;;;1.94;66.19;100683.81;4923106;28;45260;-62
2022/02/13 07:49:05;;;;;;;;;30.50;26.50;;;;;1.98;67.04;100685.53;4922105;28;45468;-61
2022/02/13 07:51:32;;;;;;;;;31.75;26.50;;;;;2.01;66.38;100684.63;4922474;28;45537;-62
2022/02/13 07:53:58;;;;;;;;;29.75;28.00;;;;;2.05;66.16;100665.59;4922138;28;45279;-66
2022/02/13 07:56:24;;;;;;;;;26.25;25.50;;;;;2.07;66.85;100671.66;4923327;28;45331;-64
2022/02/13 07:58:49;;;;;;;;;31.50;26.75;;;;;2.14;66.69;100657.81;4925210;28;45343;-65
2022/02/13 08:01:17;;;;;;;;;30.00;26.50;;;;;2.11;66.74;100646.56;4923828;28;45205;-64
2022/02/13 08:03:43;;;;;;;;;28.50;25.00;;;;;2.21;66.40;100648.25;4923003;28;45363;-63
2022/02/13 08:06:09;;;;;;;;;28.00;25.00;;;;;2.29;66.90;100645.63;4921351;28;45321;-65
2022/02/13 08:08:36;;;;;;;;;27.25;24.75;;;;;2.33;65.87;100631.75;4921710;28;45486;-64
2022/02/13 08:11:02;;;;;;;;;37.25;34.25;;;;;2.44;66.61;100635.16;4921918;28;45388;-64
2022/02/13 08:13:27;;;;;;;;;26.75;23.75;;;;;2.53;66.25;100618.66;4920485;28;46288;-67
2022/02/13 08:15:53;;;;;;;;;28.00;20.50;;;;;2.62;65.73;100621.19;4925370;28;45354;-63
2022/02/13 08:18:18;;;;;;;;;27.50;25.00;;;;;2.67;66.41;100622.91;4923582;28;45382;-62
2022/02/13 08:20:43;;;;;;;;;28.00;25.50;;;;;2.72;65.36;100614.19;4922099;28;45280;-65
2022/02/13 08:23:10;;;;;;;;;31.00;27.00;;;;;2.78;65.17;100606.34;4920973;28;48202;-64
2022/02/13 08:25:36;;;;;;;;;26.50;26.50;;;;;2.84;65.58;100604.59;4924374;28;45244;-66
2022/02/13 08:28:01;;;;;;;;;30.50;25.00;;;;;2.88;65.83;100595.91;4929148;28;45319;-64
2022/02/13 08:30:27;;;;;;;;;27.25;24.00;;;;;2.95;65.95;100601.91;4928993;28;45150;-61
2022/02/13 08:32:52;;;;;;;;;30.75;25.25;;;;;2.98;65.50;100599.28;4921816;28;45315;-62
2022/02/13 08:35:18;;;;;;;;;27.75;25.00;;;;;3.01;65.30;100591.47;4921409;28;45233;-63
2022/02/13 08:37:43;;;;;;;;;28.00;21.25;;;;;3.04;65.17;100596.63;4922012;28;45453;-63
2022/02/13 08:40:09;;;;;;;;;29.00;24.00;;;;;3.07;65.52;100599.22;4922964;28;45488;-64
2022/02/13 08:42:35;;;;;;;;;27.00;23.75;;;;;3.11;65.44;100584.44;4923062;28;45303;-68
2022/02/13 08:45:00;;;;;;;;;31.00;24.75;;;;;3.18;65.72;100592.16;4921774;28;45418;-66
2022/02/13 08:47:26;;;;;;;;;25.50;22.00;;;;;3.21;65.26;100586.09;4936537;28;45275;-68
2022/02/13 08:49:51;;;;;;;;;28.25;25.75;;;;;3.29;65.63;100581.69;4922270;28;45597;-64
2022/02/13 08:52:18;;;;;;;;;28.00;23.25;;;;;3.33;65.42;100580.78;4927508;28;46113;-65
2022/02/13 08:54:44;;;;;;;;;30.75;25.25;;;;;3.34;65.34;100566.00;4924321;28;45492;-66
2022/02/13 08:57:10;;;;;;;;;37.00;25.00;;;;;3.43;64.97;100568.53;4921158;28;45358;-67
2022/02/13 08:59:35;;;;;;;;;27.00;23.50;;;;;3.49;66.21;100567.59;4920915;28;45290;-65
2022/02/13 09:02:01;;;;;;;;;31.50;27.00;;;;;3.53;65.25;100565.81;4919466;28;47086;-63
2022/02/13 09:04:26;;;;;;;;;29.00;27.75;;;;;3.11;65.09;100483.06;4919747;28;45266;-66
2022/02/13 09:06:52;;;;;;;;;31.00;25.75;;;;;3.59;65.87;100550.13;4921341;28;45759;-66
2022/02/13 09:09:18;;;;;;;;;28.25;25.75;;;;;3.65;65.06;100557.88;4922193;28;45632;-68
2022/02/13 09:11:44;;;;;;;;;28.25;26.25;;;;;3.69;66.06;100563.91;4920363;28;48161;-66
2022/02/13 09:14:10;;;;;;;;;28.50;26.25;;;;;3.72;64.96;100567.34;4922947;28;45450;-67
2022/02/13 09:16:36;;;;;;;;;30.75;26.25;;;;;3.77;65.95;100559.47;4923598;28;45352;-63
2022/02/13 09:19:02;;;;;;;;;25.25;25.25;;;;;3.74;65.74;100547.38;4925492;28;45187;-68
2022/02/13 09:21:28;;;;;;;;;35.25;27.25;;;;;3.68;65.83;100518.81;4921548;28;46437;-67
2022/02/13 09:23:57;;;;;;;;;32.50;28.00;;;;;3.92;65.70;100542.81;4921037;28;45906;-63
2022/02/13 09:26:22;;;;;;;;;35.25;31.75;;;;;3.95;65.74;100533.22;4920989;28;45288;-62
2022/02/13 09:28:47;;;;;;;;;38.00;34.50;;;;;4.00;65.84;100525.34;4920565;28;45224;-62
2022/02/13 09:31:13;;;;;;;;;35.00;30.25;;;;;4.06;66.05;100519.19;4920149;28;45337;-63
2022/02/13 09:33:38;;;;;;;;;30.75;28.25;;;;;4.18;65.86;100524.22;4919754;28;45461;-63
2022/02/13 09:36:04;;;;;;;;;35.75;28.50;;;;;4.24;66.33;100505.03;4919914;28;45387;-69
2022/02/13 09:38:29;;;;;;;;;36.50;30.75;;;;;4.30;65.88;100491.94;4922353;28;45375;-65
2022/02/13 09:40:55;;;;;;;;;33.25;29.75;;;;;4.06;66.62;100428.06;4920948;28;45390;-63
2022/02/13 09:43:21;;;;;;;;;38.75;32.75;;;;;4.48;66.58;100474.28;4920395;28;45429;-70
2022/02/13 09:45:51;;;;;;;;;37.00;32.50;;;;;4.57;66.62;100465.47;4922956;28;45369;-66
2022/02/13 09:48:18;;;;;;;;;35.00;29.75;;;;;4.67;66.42;100474.84;4921821;28;45335;-65
2022/02/13 09:50:44;;;;;;;;;37.00;30.25;;;;;4.77;66.70;100463.38;4919385;28;47200;-64
2022/02/13 09:53:10;;;;;;;;;29.50;27.50;;;;;4.89;66.55;100448.38;4920321;28;45384;-62
2022/02/13 09:55:35;;;;;;;;;31.50;29.00;;;;;4.95;66.75;100432.63;4920369;28;45517;-67
2022/02/13 09:58:04;;;;;;;;;44.00;34.25;;;;;5.12;66.75;100435.75;4921367;28;45343;-64
2022/02/13 10:00:58;;;;;;;;;30.50;27.00;;;;;5.29;67.06;100421.50;4921516;28;45265;-62
2022/02/13 10:03:25;;;;;;;;;37.75;34.50;;;;;5.41;66.84;100415.19;4922484;28;45297;-67
2022/02/13 10:05:53;;;;;;;;;30.50;27.00;;;;;5.56;66.58;100424.44;4919463;28;45205;-63
2022/02/13 10:08:30;;;;;;;;;36.25;27.50;;;;;5.70;66.73;100418.91;4923224;28;45253;-66
2022/02/13 10:11:29;;;;;;;;;30.00;25.50;;;;;5.82;66.79;100404.72;4923020;28;45430;-64
2022/02/13 10:14:09;;;;;;;;;27.75;23.00;;;;;5.94;65.79;100401.81;4919165;28;45338;-63
2022/02/13 10:16:51;;;;;;;;;39.00;31.50;;;;;6.05;66.43;100400.75;4919769;28;45461;-61
2022/02/13 10:19:25;;;;;;;;;27.25;25.00;;;;;6.16;66.86;100390.03;4902915;28;45387;-61
2022/02/13 10:21:52;;;;;;;;;29.50;26.00;;;;;6.28;66.88;100387.97;4919285;28;46668;-63
2022/02/13 10:24:32;;;;;;;;;33.50;29.75;;;;;6.38;66.14;100374.69;4919317;28;45391;-61
2022/02/13 10:26:57;;;;;;;;;32.00;27.00;;;;;6.51;65.80;100373.47;4920643;28;45423;-63
2022/02/13 10:29:27;;;;;;;;;33.75;28.50;;;;;6.63;65.33;100364.41;4921105;28;45316;-61
2022/02/13 10:32:13;;;;;;;;;28.75;25.00;;;;;6.70;65.34;100354.66;4920310;28;46259;-61
2022/02/13 10:34:54;;;;;;;;;33.50;30.00;;;;;6.87;65.23;100359.41;4920658;28;45509;-64
2022/02/13 10:37:54;;;;;;;;;27.00;25.00;;;;;7.04;65.20;100368.56;4920349;28;45243;-61
2022/02/13 10:40:24;;;;;;;;;26.00;24.25;;;;;7.16;65.59;100373.44;4919909;28;45275;-62
2022/02/13 10:43:03;;;;;;;;;32.75;29.75;;;;;7.26;65.04;100374.88;4919263;28;46633;-62
2022/02/13 10:45:30;;;;;;;;;30.00;26.25;;;;;7.41;65.40;100368.28;4919059;28;45410;-64
2022/02/13 10:48:01;;;;;;;;;27.00;25.00;;;;;7.52;64.50;100352.28;4918572;28;45272;-69
2022/02/13 10:50:35;;;;;;;;;28.75;28.25;;;;;7.58;64.89;100343.38;4918572;28;45963;-65
2022/02/13 10:53:02;;;;;;;;;37.00;29.25;;;;;7.67;64.16;100352.69;4919286;28;45691;-62
2022/02/13 10:55:33;;;;;;;;;32.75;30.00;;;;;7.74;64.02;100342.00;4917900;28;45478;-65
2022/02/13 10:57:59;;;;;;;;;29.00;23.75;;;;;7.87;64.16;100346.81;4921719;28;45363;-64
2022/02/13 11:00:30;;;;;;;;;27.75;26.50;;;;;7.92;65.17;100331.81;4905100;28;45497;-65
2022/02/13 11:03:00;;;;;;;;;31.75;27.25;;;;;8.09;65.11;100319.91;4901909;28;46403;-64
2022/02/13 11:05:29;;;;;;;;;24.00;21.75;;;;;8.14;64.42;100308.38;4899637;29;45245;-65
2022/02/13 11:08:01;;;;;;;;;32.50;23.00;;;;;8.29;64.33;100320.06;4898372;29;45559;-63
2022/02/13 11:10:31;;;;;;;;;28.25;24.50;;;;;8.41;63.93;100304.81;4898216;29;45310;-63
2022/02/13 11:12:57;;;;;;;;;25.75;22.75;;;;;8.50;63.87;100296.69;4899908;28;46390;-63
2022/02/13 11:15:31;;;;;;;;;25.50;25.50;;;;;8.63;63.77;100297.09;4900727;28;45529;-61